Time;durP1;ratioP1;P1;durP2;ratioP2;P2;SDS_P1;SDS_P2;PMS_P1;PMS_P2;Temp;Humidity;BMP_temperature;BMP_pressure;BME280_temperature;BME280_humidity;BME280_pressure;Samples;Min_cycle;Max_cycle;Signal;HPM_P1;HPM_P2
2023/08/05 00:00:06;;;;;;;5.05;3.80;;;18.40;97.60;;;;;;963075;144;27381;-74
2023/08/05 00:02:33;;;;;;;3.77;3.37;;;18.30;97.70;;;;;;961828;145;27354;-74
2023/08/05 00:04:59;;;;;;;3.87;3.58;;;18.20;97.70;;;;;;963027;144;27433;-74
2023/08/05 00:07:26;;;;;;;4.33;4.00;;;18.10;97.80;;;;;;963149;145;27467;-74
2023/08/05 00:09:52;;;;;;;3.77;3.47;;;18.00;98.20;;;;;;964321;145;27479;-74
2023/08/05 00:12:19;;;;;;;4.35;4.05;;;18.00;98.20;;;;;;963566;145;27354;-74
2023/08/05 00:14:46;;;;;;;4.17;3.87;;;17.90;98.30;;;;;;963532;145;27471;-74
2023/08/05 00:17:12;;;;;;;5.78;3.77;;;17.80;98.50;;;;;;964477;145;27417;-74
2023/08/05 00:19:39;;;;;;;4.33;3.80;;;17.70;98.60;;;;;;963772;147;27411;-74
2023/08/05 00:22:05;;;;;;;5.10;4.58;;;17.60;98.90;;;;;;963948;147;27366;-74
2023/08/05 00:24:32;;;;;;;5.47;4.05;;;17.50;99.10;;;;;;964280;145;27429;-74
2023/08/05 00:26:58;;;;;;;4.35;3.72;;;17.50;99.30;;;;;;960294;146;27415;-74
2023/08/05 00:29:25;;;;;;;4.15;3.80;;;17.40;99.40;;;;;;952447;148;27454;-74
2023/08/05 00:31:52;;;;;;;4.10;3.80;;;17.30;99.50;;;;;;954873;146;27452;-74
2023/08/05 00:34:18;;;;;;;4.42;3.98;;;17.20;99.70;;;;;;953671;147;27345;-74
2023/08/05 00:36:45;;;;;;;5.45;3.60;;;17.20;99.90;;;;;;954204;147;27342;-74
2023/08/05 00:39:12;;;;;;;4.15;3.75;;;17.10;99.90;;;;;;953398;148;27368;-74
2023/08/05 00:41:38;;;;;;;4.30;3.60;;;17.00;99.90;;;;;;953332;147;27333;-74
2023/08/05 00:44:05;;;;;;;6.97;3.55;;;17.00;99.90;;;;;;954378;147;27372;-74
2023/08/05 00:46:31;;;;;;;4.87;4.37;;;16.90;99.90;;;;;;953284;148;27436;-74
2023/08/05 00:48:58;;;;;;;4.72;3.95;;;16.80;99.90;;;;;;952775;147;27364;-73
2023/08/05 00:51:24;;;;;;;3.90;3.58;;;16.80;99.90;;;;;;954740;147;27367;-72
2023/08/05 00:53:51;;;;;;;5.50;4.15;;;16.70;99.90;;;;;;952886;147;27339;-73
2023/08/05 00:56:18;;;;;;;4.95;4.55;;;16.70;99.90;;;;;;954278;147;27370;-72
2023/08/05 00:58:44;;;;;;;4.83;4.42;;;16.60;99.90;;;;;;953554;148;27314;-73
2023/08/05 01:01:11;;;;;;;7.15;3.70;;;16.50;99.90;;;;;;953074;147;27431;-73
2023/08/05 01:03:37;;;;;;;7.28;4.15;;;16.50;99.90;;;;;;954185;147;27337;-72
2023/08/05 01:06:04;;;;;;;5.20;4.20;;;16.50;99.90;;;;;;955716;147;27496;-73
2023/08/05 01:08:31;;;;;;;4.25;3.85;;;16.40;99.90;;;;;;954136;146;27780;-72
2023/08/05 01:10:57;;;;;;;5.70;4.20;;;16.30;99.90;;;;;;954328;147;27322;-73
2023/08/05 01:13:24;;;;;;;5.78;4.22;;;16.20;99.90;;;;;;953839;147;27375;-72
2023/08/05 01:15:50;;;;;;;3.92;3.45;;;16.20;99.90;;;;;;954323;146;27883;-72
2023/08/05 01:18:17;;;;;;;4.00;3.60;;;16.20;99.90;;;;;;925849;151;27480;-72
2023/08/05 01:20:46;;;;;;;4.58;4.20;;;16.10;99.90;;;;;;959024;146;27308;-72
2023/08/05 01:23:16;;;;;;;4.33;4.03;;;16.10;99.90;;;;;;960057;146;27457;-72
2023/08/05 01:25:42;;;;;;;5.37;4.77;;;16.00;99.90;;;;;;957479;146;27289;-72
2023/08/05 01:28:09;;;;;;;3.93;3.63;;;16.00;99.90;;;;;;962618;147;27397;-72
2023/08/05 01:30:36;;;;;;;3.95;3.55;;;15.90;99.90;;;;;;966331;147;28911;-72
2023/08/05 01:33:02;;;;;;;7.00;3.85;;;15.90;99.90;;;;;;965505;145;27439;-73
2023/08/05 01:35:29;;;;;;;4.22;3.30;;;15.80;99.90;;;;;;965044;145;27328;-73
2023/08/05 01:37:55;;;;;;;4.30;3.90;;;15.80;99.90;;;;;;965222;147;27363;-73
2023/08/05 01:40:27;;;;;;;4.65;4.30;;;15.80;99.90;;;;;;966178;144;27380;-72
2023/08/05 01:42:48;;;;;;;9.47;4.57;;;15.70;99.90;;;;;;965547;144;27308;-72
2023/08/05 01:45:15;;;;;;;4.10;3.67;;;15.70;99.90;;;;;;963096;145;27692;-71
2023/08/05 01:47:41;;;;;;;4.62;3.70;;;15.70;99.90;;;;;;965387;145;27440;-73
2023/08/05 01:50:08;;;;;;;4.67;3.80;;;15.70;99.90;;;;;;965324;145;27377;-72
2023/08/05 01:52:35;;;;;;;3.80;3.50;;;15.60;99.90;;;;;;964123;145;27379;-73
2023/08/05 01:55:01;;;;;;;5.93;4.30;;;15.60;99.90;;;;;;933353;151;27382;-73
2023/08/05 01:57:28;;;;;;;4.35;3.95;;;15.60;99.90;;;;;;963552;145;27463;-73
2023/08/05 01:59:54;;;;;;;5.60;3.52;;;15.50;99.90;;;;;;961956;147;27335;-73
2023/08/05 02:02:21;;;;;;;4.45;4.05;;;15.50;99.90;;;;;;950147;148;27364;-73
2023/08/05 02:04:48;;;;;;;4.58;3.77;;;15.50;99.90;;;;;;961421;147;27351;-74
2023/08/05 02:07:14;;;;;;;6.53;4.03;;;15.50;99.90;;;;;;963686;144;27448;-73
2023/08/05 02:09:41;;;;;;;3.90;3.60;;;15.40;99.90;;;;;;962854;145;27374;-73
2023/08/05 02:12:07;;;;;;;4.47;3.80;;;15.40;99.90;;;;;;963487;144;27352;-74
2023/08/05 02:14:34;;;;;;;4.83;3.80;;;15.40;99.90;;;;;;963285;145;27356;-73
2023/08/05 02:17:01;;;;;;;4.05;3.65;;;15.40;99.90;;;;;;964448;144;27436;-74
2023/08/05 02:19:27;;;;;;;4.93;3.57;;;15.40;99.90;;;;;;962867;144;27344;-73
2023/08/05 02:21:54;;;;;;;8.20;4.07;;;15.30;99.90;;;;;;962963;145;28318;-73
2023/08/05 02:24:20;;;;;;;4.23;3.40;;;15.40;99.90;;;;;;961996;145;27340;-73
2023/08/05 02:26:47;;;;;;;3.63;3.33;;;15.30;99.90;;;;;;963481;145;27335;-74
2023/08/05 02:29:13;;;;;;;3.93;3.63;;;15.30;99.90;;;;;;962791;145;27400;-73
2023/08/05 02:31:40;;;;;;;4.67;3.60;;;15.30;99.90;;;;;;965479;144;27374;-73
2023/08/05 02:34:07;;;;;;;6.00;4.12;;;15.20;99.90;;;;;;962917;145;27358;-73
2023/08/05 02:36:33;;;;;;;4.55;4.03;;;15.20;99.90;;;;;;963818;145;27405;-73
2023/08/05 02:39:00;;;;;;;5.40;3.80;;;15.20;99.90;;;;;;964045;145;27400;-73
2023/08/05 02:41:26;;;;;;;4.23;3.93;;;15.10;99.90;;;;;;963396;145;27346;-73
2023/08/05 02:43:53;;;;;;;4.55;4.15;;;15.10;99.90;;;;;;965211;145;27410;-73
2023/08/05 02:46:20;;;;;;;4.72;4.15;;;15.10;99.90;;;;;;963042;145;27472;-74
2023/08/05 02:48:46;;;;;;;3.75;3.35;;;15.00;99.90;;;;;;963173;145;27809;-73
2023/08/05 02:51:13;;;;;;;3.70;3.40;;;15.00;99.90;;;;;;963211;145;27319;-74
2023/08/05 02:53:39;;;;;;;4.33;3.93;;;15.00;99.90;;;;;;963272;144;27354;-74
2023/08/05 02:56:06;;;;;;;4.90;4.08;;;15.00;99.90;;;;;;964345;145;27289;-73
2023/08/05 02:58:33;;;;;;;5.25;4.50;;;15.00;99.90;;;;;;964692;145;27474;-73
2023/08/05 03:01:05;;;;;;;4.53;4.23;;;14.90;99.90;;;;;;964218;145;27343;-73
2023/08/05 03:03:31;;;;;;;4.20;3.80;;;14.90;99.90;;;;;;963593;145;27367;-73
2023/08/05 03:05:58;;;;;;;5.20;4.40;;;14.90;99.90;;;;;;964737;145;28094;-74
2023/08/05 03:08:25;;;;;;;4.37;4.00;;;14.90;99.90;;;;;;964001;145;27404;-74
2023/08/05 03:10:58;;;;;;;7.40;4.30;;;14.80;99.90;;;;;;964814;147;27371;-74
2023/08/05 03:13:24;;;;;;;4.23;3.67;;;14.80;99.90;;;;;;964419;145;27275;-74
2023/08/05 03:15:50;;;;;;;6.92;4.15;;;14.80;99.90;;;;;;965429;144;27348;-74
2023/08/05 03:18:17;;;;;;;4.57;4.17;;;14.80;99.90;;;;;;961950;145;27365;-74
2023/08/05 03:20:44;;;;;;;4.87;4.40;;;14.70;99.90;;;;;;962663;145;27386;-74
2023/08/05 03:23:10;;;;;;;4.17;3.87;;;14.70;99.90;;;;;;950727;148;27434;-74
2023/08/05 03:25:37;;;;;;;4.67;4.37;;;14.70;99.90;;;;;;962649;145;27371;-74
2023/08/05 03:28:03;;;;;;;4.17;3.73;;;14.70;99.90;;;;;;963595;145;27572;-74
2023/08/05 03:30:30;;;;;;;5.30;4.30;;;14.70;99.90;;;;;;965237;145;27372;-74
2023/08/05 03:32:57;;;;;;;9.73;5.90;;;14.60;99.90;;;;;;964109;144;27434;-74
2023/08/05 03:35:23;;;;;;;4.67;3.83;;;14.70;99.90;;;;;;964882;145;27335;-74
2023/08/05 03:37:50;;;;;;;4.67;4.17;;;14.60;99.90;;;;;;965049;145;27455;-74
2023/08/05 03:40:16;;;;;;;4.87;4.03;;;14.60;99.90;;;;;;964207;145;27348;-74
2023/08/05 03:42:43;;;;;;;4.17;3.53;;;14.60;99.90;;;;;;963876;145;27452;-74
2023/08/05 03:45:11;;;;;;;4.77;4.20;;;14.60;99.90;;;;;;964534;145;27368;-74
2023/08/05 03:47:36;;;;;;;5.27;4.10;;;14.60;99.90;;;;;;964471;145;27360;-74
2023/08/05 03:50:03;;;;;;;10.37;5.13;;;14.60;99.90;;;;;;963066;145;27459;-74
2023/08/05 03:52:29;;;;;;;4.47;4.07;;;14.50;99.90;;;;;;964280;144;28429;-74
2023/08/05 03:54:56;;;;;;;5.00;4.27;;;14.50;99.90;;;;;;962912;145;27366;-74
2023/08/05 03:57:22;;;;;;;5.90;4.77;;;14.50;99.90;;;;;;963487;145;27366;-74
2023/08/05 03:59:49;;;;;;;5.20;4.10;;;14.50;99.90;;;;;;961641;145;27445;-74
2023/08/05 04:02:16;;;;;;;7.13;4.63;;;14.50;99.90;;;;;;964680;145;27378;-74
2023/08/05 04:04:45;;;;;;;4.77;4.37;;;14.50;99.90;;;;;;964245;145;27311;-74
2023/08/05 04:07:12;;;;;;;5.37;4.17;;;14.50;99.90;;;;;;963814;145;27392;-74
2023/08/05 04:09:38;;;;;;;5.03;3.90;;;14.40;99.90;;;;;;962440;147;27397;-74
2023/08/05 04:12:08;;;;;;;4.50;3.80;;;14.40;99.90;;;;;;964129;145;27436;-74
2023/08/05 04:14:31;;;;;;;4.00;3.60;;;14.40;99.90;;;;;;962707;145;28515;-74
2023/08/05 04:16:58;;;;;;;4.70;3.80;;;14.40;99.90;;;;;;963831;144;27435;-74
2023/08/05 04:19:25;;;;;;;4.12;3.83;;;14.40;99.90;;;;;;964355;145;27307;-73
2023/08/05 04:21:52;;;;;;;4.47;4.07;;;14.40;99.90;;;;;;963489;144;27367;-73
2023/08/05 04:24:21;;;;;;;5.23;3.63;;;14.40;99.90;;;;;;963383;144;27347;-73
2023/08/05 04:26:44;;;;;;;4.87;3.83;;;14.40;99.90;;;;;;963290;145;27344;-74
2023/08/05 04:29:11;;;;;;;4.40;4.00;;;14.40;99.90;;;;;;964275;145;27332;-74
2023/08/05 04:31:38;;;;;;;4.67;4.27;;;14.40;99.90;;;;;;954724;146;27473;-74
2023/08/05 04:34:04;;;;;;;5.37;4.43;;;14.50;99.90;;;;;;955118;147;27439;-73
2023/08/05 04:36:31;;;;;;;3.80;3.43;;;14.50;99.90;;;;;;953952;147;27481;-73
2023/08/05 04:38:59;;;;;;;4.70;4.30;;;14.50;99.90;;;;;;954445;146;27348;-74
2023/08/05 04:41:24;;;;;;;5.08;4.47;;;14.60;99.90;;;;;;953800;147;28746;-73
2023/08/05 04:43:50;;;;;;;3.77;3.50;;;14.60;99.90;;;;;;955079;146;27322;-73
2023/08/05 04:46:17;;;;;;;4.47;4.08;;;14.70;99.90;;;;;;954641;147;27377;-73
2023/08/05 04:48:44;;;;;;;4.30;3.90;;;14.80;99.90;;;;;;953090;147;27409;-73
2023/08/05 04:51:10;;;;;;;5.28;4.17;;;14.80;99.90;;;;;;954512;147;27387;-74
2023/08/05 04:53:37;;;;;;;4.90;3.90;;;14.90;99.90;;;;;;953085;148;27402;-73
2023/08/05 04:56:03;;;;;;;4.42;4.03;;;15.00;99.90;;;;;;953818;147;27341;-73
2023/08/05 04:58:30;;;;;;;4.05;3.75;;;15.00;99.90;;;;;;953593;148;27399;-74
2023/08/05 05:00:57;;;;;;;4.60;4.05;;;15.10;99.90;;;;;;952891;147;27356;-74
2023/08/05 05:03:23;;;;;;;5.22;4.03;;;15.20;99.90;;;;;;953924;147;27356;-73
2023/08/05 05:05:50;;;;;;;4.67;4.28;;;15.30;99.90;;;;;;954564;146;27322;-74
2023/08/05 05:08:16;;;;;;;4.72;4.33;;;15.40;99.90;;;;;;954503;148;28155;-73
2023/08/05 05:10:46;;;;;;;4.85;4.35;;;15.50;99.90;;;;;;953844;146;27349;-74
2023/08/05 05:13:12;;;;;;;5.62;5.12;;;15.70;99.90;;;;;;954348;147;27466;-73
2023/08/05 05:15:39;;;;;;;5.35;4.85;;;15.90;99.90;;;;;;954400;145;27314;-74
2023/08/05 05:18:06;;;;;;;4.37;4.08;;;16.20;99.90;;;;;;953901;146;27426;-73
2023/08/05 05:20:32;;;;;;;4.28;3.98;;;16.60;99.90;;;;;;954809;146;27358;-73
2023/08/05 05:22:59;;;;;;;4.20;3.70;;;17.00;99.90;;;;;;953465;146;27918;-73
2023/08/05 05:25:25;;;;;;;4.15;3.77;;;17.60;99.90;;;;;;954128;146;27363;-74
2023/08/05 05:27:52;;;;;;;3.90;3.60;;;18.30;99.90;;;;;;952820;146;27383;-73
2023/08/05 05:30:19;;;;;;;7.17;3.75;;;19.00;99.90;;;;;;953073;146;27561;-72
2023/08/05 05:32:45;;;;;;;3.00;2.80;;;19.70;99.90;;;;;;954039;147;27372;-72
2023/08/05 05:35:12;;;;;;;3.33;3.10;;;20.50;99.90;;;;;;954129;147;27295;-74
2023/08/05 05:37:38;;;;;;;3.08;2.77;;;21.30;99.90;;;;;;953522;147;27469;-71
2023/08/05 05:40:05;;;;;;;3.85;2.92;;;22.10;99.90;;;;;;954823;147;27325;-74
2023/08/05 05:42:32;;;;;;;2.62;2.42;;;22.90;99.90;;;;;;954713;147;27365;-74
2023/08/05 05:44:59;;;;;;;4.95;2.27;;;23.60;99.90;;;;;;953256;147;27341;-73
2023/08/05 05:47:25;;;;;;;2.70;2.50;;;24.50;99.90;;;;;;953662;148;27419;-74
2023/08/05 05:49:51;;;;;;;2.40;2.20;;;25.20;99.90;;;;;;952659;147;27353;-73
2023/08/05 05:52:18;;;;;;;2.00;1.90;;;26.00;99.90;;;;;;952833;148;27446;-75
2023/08/05 05:54:45;;;;;;;2.62;2.22;;;26.70;99.90;;;;;;953792;146;27435;-72
2023/08/05 05:57:11;;;;;;;2.87;2.00;;;27.50;97.50;;;;;;953200;146;27317;-74
2023/08/05 05:59:39;;;;;;;2.40;2.20;;;28.20;95.60;;;;;;952451;147;27772;-73
2023/08/05 06:02:04;;;;;;;2.25;2.10;;;29.00;93.00;;;;;;953405;147;26177;-73
2023/08/05 06:04:31;;;;;;;3.45;2.12;;;29.70;89.60;;;;;;953682;148;27333;-74
2023/08/05 06:06:57;;;;;;;2.10;2.00;;;30.30;85.20;;;;;;953384;147;27345;-75
2023/08/05 06:09:25;;;;;;;2.20;2.00;;;31.00;81.60;;;;;;954629;147;27392;-75
2023/08/05 06:11:51;;;;;;;1.90;1.80;;;31.50;77.30;;;;;;953693;146;27411;-73
2023/08/05 06:14:18;;;;;;;2.30;1.67;;;32.10;73.90;;;;;;954725;146;27394;-76
2023/08/05 06:16:44;;;;;;;2.20;2.10;;;32.50;71.40;;;;;;953855;146;27355;-74
2023/08/05 06:19:10;;;;;;;2.08;1.98;;;32.80;69.30;;;;;;954140;147;27416;-76
2023/08/05 06:21:37;;;;;;;2.30;1.72;;;33.10;67.60;;;;;;952927;147;27343;-73
2023/08/05 06:24:04;;;;;;;2.20;1.40;;;33.40;66.30;;;;;;953871;146;26263;-73
2023/08/05 06:26:30;;;;;;;2.33;1.62;;;33.80;65.80;;;;;;954032;148;27889;-76
2023/08/05 06:28:57;;;;;;;1.92;1.82;;;34.10;65.00;;;;;;953030;147;26283;-74
2023/08/05 06:31:23;;;;;;;1.60;1.50;;;34.50;64.40;;;;;;958162;145;26409;-74
2023/08/05 06:33:50;;;;;;;3.12;1.85;;;35.00;62.10;;;;;;965226;145;26288;-73
2023/08/05 06:36:17;;;;;;;1.85;1.75;;;35.30;60.70;;;;;;962809;145;26324;-76
2023/08/05 06:38:43;;;;;;;1.82;1.70;;;35.70;59.40;;;;;;963400;145;26353;-74
2023/08/05 06:41:10;;;;;;;2.45;1.98;;;35.90;58.40;;;;;;964491;144;26277;-76
2023/08/05 06:43:36;;;;;;;2.47;1.75;;;36.10;57.60;;;;;;965076;145;26272;-73
2023/08/05 06:46:03;;;;;;;1.40;1.30;;;36.40;57.20;;;;;;962874;145;26252;-74
2023/08/05 06:48:30;;;;;;;1.55;1.45;;;36.60;56.80;;;;;;962839;145;26241;-75
2023/08/05 06:50:56;;;;;;;1.50;1.40;;;36.90;56.10;;;;;;964623;144;26268;-73
2023/08/05 06:53:23;;;;;;;1.35;1.25;;;37.20;55.30;;;;;;964397;145;26251;-75
2023/08/05 06:55:49;;;;;;;1.45;1.35;;;37.50;54.60;;;;;;963653;145;26264;-73
2023/08/05 06:58:16;;;;;;;1.60;1.50;;;37.80;54.00;;;;;;960726;145;27268;-73
2023/08/05 07:00:42;;;;;;;1.50;1.40;;;38.00;53.50;;;;;;963504;147;26264;-75
2023/08/05 07:03:09;;;;;;;1.60;1.40;;;38.30;52.90;;;;;;962679;145;27568;-73
2023/08/05 07:05:36;;;;;;;2.35;1.35;;;38.50;52.50;;;;;;962886;145;26273;-72
2023/08/05 07:08:02;;;;;;;4.12;1.40;;;38.80;52.10;;;;;;962967;144;26317;-74
2023/08/05 07:10:29;;;;;;;1.55;1.45;;;39.20;51.60;;;;;;963417;145;26353;-76
2023/08/05 07:12:55;;;;;;;1.82;1.45;;;39.50;50.80;;;;;;962354;144;26270;-73
2023/08/05 07:15:22;;;;;;;1.20;1.20;;;39.80;50.80;;;;;;962729;145;26348;-74
2023/08/05 07:17:49;;;;;;;2.22;1.35;;;40.10;49.50;;;;;;963126;146;26277;-73
2023/08/05 07:20:15;;;;;;;2.10;1.40;;;40.40;48.80;;;;;;963210;145;26299;-73
2023/08/05 07:22:42;;;;;;;2.72;1.60;;;40.70;48.30;;;;;;963585;145;26252;-75
2023/08/05 07:25:08;;;;;;;1.55;1.40;;;40.90;47.70;;;;;;962785;145;26349;-73
2023/08/05 07:27:35;;;;;;;1.90;1.30;;;41.10;47.10;;;;;;962609;145;26240;-76
2023/08/05 07:30:01;;;;;;;1.90;1.40;;;41.40;46.80;;;;;;962343;144;26281;-75
2023/08/05 07:32:28;;;;;;;1.12;1.10;;;41.70;46.30;;;;;;963685;145;26692;-74
2023/08/05 07:34:56;;;;;;;1.45;1.10;;;42.00;45.80;;;;;;964652;147;26293;-73
2023/08/05 07:37:21;;;;;;;1.47;1.15;;;42.20;45.30;;;;;;962869;145;26333;-74
2023/08/05 07:39:49;;;;;;;1.75;1.30;;;42.40;45.00;;;;;;964262;145;26281;-73
2023/08/05 07:42:15;;;;;;;1.32;1.22;;;42.80;44.20;;;;;;962319;145;26239;-74
2023/08/05 07:44:42;;;;;;;0.95;0.95;;;43.10;43.80;;;;;;963996;145;26652;-76
2023/08/05 07:47:08;;;;;;;1.20;1.10;;;43.30;43.30;;;;;;962684;145;26249;-75
2023/08/05 07:49:34;;;;;;;2.00;1.12;;;43.60;42.90;;;;;;963671;145;26256;-75
2023/08/05 07:52:01;;;;;;;1.12;1.00;;;43.90;42.20;;;;;;964279;145;26276;-75
2023/08/05 07:54:27;;;;;;;0.95;0.95;;;44.10;41.60;;;;;;964417;144;26172;-75
2023/08/05 07:56:54;;;;;;;1.35;1.22;;;44.30;41.30;;;;;;962301;145;26382;-75
2023/08/05 07:59:21;;;;;;;0.88;0.88;;;44.40;40.60;;;;;;962449;145;26710;-75
2023/08/05 08:01:48;;;;;;;1.52;1.02;;;44.60;40.30;;;;;;962520;145;27776;-75
2023/08/05 08:04:15;;;;;;;1.17;1.10;;;44.70;39.80;;;;;;963145;145;26279;-75
2023/08/05 08:06:42;;;;;;;1.20;1.05;;;44.90;39.70;;;;;;962819;145;26272;-75
2023/08/05 08:09:07;;;;;;;1.92;1.00;;;45.00;39.10;;;;;;961495;145;26315;-76
2023/08/05 08:11:34;;;;;;;1.15;1.07;;;45.20;39.30;;;;;;962970;145;26313;-75
2023/08/05 08:14:00;;;;;;;1.00;0.90;;;45.30;38.40;;;;;;962816;144;26361;-75
2023/08/05 08:16:28;;;;;;;1.07;0.90;;;45.40;38.20;;;;;;963500;145;26345;-76
2023/08/05 08:18:53;;;;;;;1.27;1.17;;;45.50;37.50;;;;;;961497;144;26333;-75
2023/08/05 08:21:20;;;;;;;0.90;0.90;;;45.60;37.20;;;;;;963202;145;27051;-76
2023/08/05 08:23:46;;;;;;;1.47;0.98;;;45.60;36.60;;;;;;962903;145;26276;-75
2023/08/05 08:26:13;;;;;;;1.25;1.10;;;45.70;36.30;;;;;;964045;145;26411;-75
2023/08/05 08:28:40;;;;;;;1.12;0.90;;;45.60;35.90;;;;;;962473;145;26279;-75
2023/08/05 08:31:06;;;;;;;1.25;0.98;;;45.60;35.80;;;;;;962809;144;26345;-75
2023/08/05 08:33:33;;;;;;;0.82;0.82;;;45.50;35.50;;;;;;963096;144;26413;-75
2023/08/05 08:35:59;;;;;;;0.85;0.60;;;45.60;35.60;;;;;;963939;146;26370;-75
2023/08/05 08:38:26;;;;;;;1.52;0.68;;;45.60;35.20;;;;;;963950;145;26247;-75
2023/08/05 08:40:53;;;;;;;1.20;0.90;;;45.60;35.30;;;;;;964446;144;26246;-75
2023/08/05 08:43:19;;;;;;;0.85;0.85;;;45.70;34.80;;;;;;962379;145;26622;-75
2023/08/05 08:45:52;;;;;;;1.02;0.70;;;45.70;34.30;;;;;;965587;146;26345;-75
2023/08/05 08:48:18;;;;;;;0.50;0.50;;;45.80;34.20;;;;;;961932;145;26272;-75
2023/08/05 08:50:46;;;;;;;1.32;0.80;;;45.80;33.90;;;;;;962996;145;26324;-75
2023/08/05 08:53:14;;;;;;;0.50;0.50;;;46.00;33.90;;;;;;963277;145;26288;-76
2023/08/05 08:55:41;;;;;;;0.82;0.40;;;46.00;33.30;;;;;;963405;145;26342;-76
2023/08/05 08:58:07;;;;;;;0.70;0.68;;;46.10;32.60;;;;;;963714;145;26358;-77
2023/08/05 09:00:34;;;;;;;1.20;0.78;;;46.10;31.90;;;;;;964537;145;26260;-78
2023/08/05 09:03:01;;;;;;;0.50;0.50;;;46.00;31.80;;;;;;964221;145;26235;-76
2023/08/05 09:05:30;;;;;;;0.60;0.60;;;45.80;32.00;;;;;;963688;144;26288;-76
2023/08/05 09:07:57;;;;;;;1.98;0.40;;;45.80;32.30;;;;;;957202;145;26421;-76
2023/08/05 09:10:24;;;;;;;0.70;0.70;;;45.70;32.50;;;;;;963965;145;26352;-77
2023/08/05 09:12:50;;;;;;;1.05;0.50;;;45.80;32.50;;;;;;962493;144;27015;-76
2023/08/05 09:15:17;;;;;;;0.80;0.60;;;45.70;32.40;;;;;;963561;145;26296;-76
2023/08/05 09:17:44;;;;;;;0.80;0.60;;;45.80;32.10;;;;;;962116;145;26198;-76
2023/08/05 09:20:22;;;;;;;1.22;0.70;;;45.70;31.90;;;;;;964703;145;26367;-77
2023/08/05 09:22:54;;;;;;;0.70;0.70;;;45.60;31.80;;;;;;962696;147;26177;-77
2023/08/05 09:25:21;;;;;;;0.50;0.50;;;45.50;31.90;;;;;;964039;144;26257;-77
2023/08/05 09:27:47;;;;;;;0.85;0.85;;;45.50;32.10;;;;;;963418;145;26659;-77
2023/08/05 09:30:17;;;;;;;0.70;0.70;;;45.60;31.80;;;;;;963415;144;26316;-77
2023/08/05 09:32:44;;;;;;;0.68;0.68;;;45.70;31.60;;;;;;962328;147;26841;-77
2023/08/05 09:35:10;;;;;;;0.72;0.72;;;45.80;31.60;;;;;;954003;146;26206;-77
2023/08/05 09:37:46;;;;;;;0.75;0.75;;;46.00;31.30;;;;;;953635;146;26253;-77
2023/08/05 09:40:28;;;;;;;0.78;0.78;;;46.10;30.80;;;;;;953971;147;26701;-76
2023/08/05 09:43:02;;;;;;;0.47;0.37;;;46.20;30.80;;;;;;954149;146;26258;-79
2023/08/05 09:45:28;;;;;;;0.50;0.40;;;46.30;30.80;;;;;;951622;147;26351;-76
2023/08/05 09:47:55;;;;;;;0.88;0.88;;;46.40;30.50;;;;;;954361;147;26326;-77
2023/08/05 09:50:20;;;;;;;0.70;0.70;;;46.30;30.20;;;;;;953180;147;26234;-77
2023/08/05 09:52:49;;;;;;;0.57;0.40;;;46.30;30.00;;;;;;954345;148;26367;-78
2023/08/05 09:55:15;;;;;;;1.07;0.80;;;46.10;29.70;;;;;;955036;146;26273;-77
2023/08/05 09:57:42;;;;;;;0.80;0.80;;;46.00;29.70;;;;;;954009;147;26277;-78
2023/08/05 10:00:10;;;;;;;0.60;0.60;;;45.70;29.80;;;;;;954278;147;26346;-77
2023/08/05 10:02:35;;;;;;;0.47;0.47;;;45.40;29.70;;;;;;953444;147;26292;-78
2023/08/05 10:05:02;;;;;;;0.70;0.55;;;45.10;29.70;;;;;;955061;147;26258;-76
2023/08/05 10:07:28;;;;;;;0.70;0.60;;;44.70;29.60;;;;;;954181;147;26441;-77
2023/08/05 10:09:55;;;;;;;0.80;0.50;;;44.20;29.50;;;;;;953959;147;26384;-76
2023/08/05 10:12:24;;;;;;;1.32;0.80;;;43.60;29.60;;;;;;952302;147;26353;-77
2023/08/05 10:14:51;;;;;;;0.68;0.65;;;42.90;29.90;;;;;;952971;147;26281;-76
2023/08/05 10:17:17;;;;;;;0.93;0.85;;;42.40;30.10;;;;;;953676;146;26341;-77
2023/08/05 10:19:49;;;;;;;1.40;0.85;;;41.90;30.10;;;;;;952933;147;26258;-77
2023/08/05 10:22:14;;;;;;;0.75;0.75;;;41.30;30.20;;;;;;951812;147;26343;-77
2023/08/05 10:24:49;;;;;;;0.68;0.68;;;40.90;30.50;;;;;;953846;146;26273;-76
2023/08/05 10:27:15;;;;;;;0.72;0.72;;;40.50;30.60;;;;;;951996;147;26229;-77
2023/08/05 10:29:51;;;;;;;0.85;0.85;;;40.00;31.10;;;;;;953109;147;26264;-77
2023/08/05 10:32:17;;;;;;;0.90;0.90;;;39.50;31.30;;;;;;952534;146;26301;-77
2023/08/05 10:34:43;;;;;;;0.90;0.80;;;39.00;31.30;;;;;;953030;147;26281;-76
2023/08/05 10:37:10;;;;;;;1.65;0.70;;;38.50;31.70;;;;;;952967;147;26261;-76
2023/08/05 10:39:39;;;;;;;0.95;0.95;;;37.90;31.90;;;;;;952322;148;26281;-76
2023/08/05 10:42:27;;;;;;;0.90;0.90;;;37.30;32.40;;;;;;953050;147;27493;-76
2023/08/05 10:44:54;;;;;;;1.22;0.85;;;36.80;32.90;;;;;;953389;147;27450;-76
2023/08/05 10:47:23;;;;;;;1.17;0.90;;;36.40;33.50;;;;;;952147;147;27323;-76
2023/08/05 10:49:56;;;;;;;1.00;0.82;;;36.10;33.80;;;;;;954552;147;27383;-76
2023/08/05 10:52:23;;;;;;;0.95;0.95;;;35.80;34.00;;;;;;953459;147;27459;-76
2023/08/05 10:54:49;;;;;;;0.55;0.55;;;35.60;34.20;;;;;;953877;146;27389;-76
2023/08/05 10:57:34;;;;;;;1.42;0.80;;;35.40;34.40;;;;;;954608;146;27436;-76
2023/08/05 11:00:01;;;;;;;1.22;0.90;;;35.10;34.60;;;;;;953461;147;27318;-76
2023/08/05 11:02:27;;;;;;;0.82;0.82;;;34.80;34.60;;;;;;952616;148;27355;-76
2023/08/05 11:05:09;;;;;;;0.72;0.72;;;34.60;34.90;;;;;;953089;147;27347;-76
2023/08/05 11:07:42;;;;;;;1.10;1.10;;;34.30;34.90;;;;;;953360;146;27481;-76
2023/08/05 11:10:08;;;;;;;0.88;0.88;;;34.00;34.90;;;;;;953431;147;27215;-76
2023/08/05 11:12:34;;;;;;;1.42;0.78;;;33.80;35.20;;;;;;954302;146;27326;-76
2023/08/05 11:15:01;;;;;;;0.80;0.80;;;33.60;35.10;;;;;;954294;147;27393;-76
2023/08/05 11:17:28;;;;;;;0.88;0.82;;;33.40;35.20;;;;;;953552;147;27462;-76
2023/08/05 11:19:54;;;;;;;0.70;0.70;;;33.10;35.40;;;;;;955177;147;27351;-77
2023/08/05 11:22:21;;;;;;;0.93;0.75;;;32.90;35.90;;;;;;953632;146;27293;-77
2023/08/05 11:24:47;;;;;;;0.82;0.82;;;32.70;36.10;;;;;;953537;147;27470;-77
2023/08/05 11:27:14;;;;;;;0.70;0.70;;;32.50;36.10;;;;;;953984;147;27407;-76
2023/08/05 11:29:41;;;;;;;0.62;0.62;;;32.30;36.50;;;;;;953372;146;27468;-77
2023/08/05 11:32:07;;;;;;;1.00;1.00;;;32.10;36.60;;;;;;954050;147;27335;-78
2023/08/05 11:34:34;;;;;;;0.70;0.70;;;31.90;37.00;;;;;;954381;147;27466;-77
2023/08/05 11:37:00;;;;;;;0.90;0.90;;;31.70;37.40;;;;;;954276;147;27353;-79
2023/08/05 11:39:27;;;;;;;0.62;0.57;;;31.60;37.60;;;;;;954168;147;27369;-77
2023/08/05 11:41:54;;;;;;;0.70;0.70;;;31.50;37.70;;;;;;953699;145;27465;-78
2023/08/05 11:44:20;;;;;;;1.00;0.90;;;31.50;38.10;;;;;;955324;146;27306;-77
2023/08/05 11:46:47;;;;;;;0.68;0.68;;;31.50;38.30;;;;;;953650;146;27330;-77
2023/08/05 11:49:13;;;;;;;1.32;0.82;;;31.50;38.30;;;;;;953392;147;27334;-76
2023/08/05 11:51:52;;;;;;;0.93;0.93;;;31.70;38.60;;;;;;953760;146;27458;-77
2023/08/05 11:54:25;;;;;;;0.68;0.68;;;31.70;38.50;;;;;;926644;151;27383;-77
2023/08/05 11:56:51;;;;;;;0.98;0.85;;;31.80;38.20;;;;;;958975;146;27354;-77
2023/08/05 11:59:17;;;;;;;0.90;0.90;;;31.90;38.00;;;;;;959357;146;27302;-77
2023/08/05 12:01:44;;;;;;;0.70;0.70;;;32.00;37.80;;;;;;957550;146;27327;-76
2023/08/05 12:04:11;;;;;;;1.00;1.00;;;32.00;37.70;;;;;;957869;146;27462;-76
2023/08/05 12:06:37;;;;;;;1.10;0.80;;;32.00;37.80;;;;;;956436;146;27399;-78
2023/08/05 12:09:04;;;;;;;0.90;0.90;;;31.90;37.80;;;;;;957152;146;27501;-77
2023/08/05 12:11:30;;;;;;;0.80;0.70;;;31.80;38.00;;;;;;958856;147;26281;-78
2023/08/05 12:13:57;;;;;;;1.32;0.90;;;31.80;38.10;;;;;;957655;146;27413;-78
2023/08/05 12:16:23;;;;;;;1.00;0.90;;;31.70;38.40;;;;;;958408;145;27442;-77
2023/08/05 12:18:50;;;;;;;1.37;1.20;;;31.70;38.50;;;;;;958390;146;27367;-77
2023/08/05 12:21:17;;;;;;;0.93;0.80;;;31.70;38.50;;;;;;958512;146;28191;-77
2023/08/05 12:23:43;;;;;;;0.93;0.93;;;31.60;38.40;;;;;;959757;146;27269;-77
2023/08/05 12:26:10;;;;;;;0.80;0.80;;;31.60;38.40;;;;;;960780;146;27290;-77
2023/08/05 12:28:37;;;;;;;1.90;0.80;;;31.60;38.80;;;;;;957748;147;27364;-76
2023/08/05 12:31:03;;;;;;;0.90;0.82;;;31.60;38.60;;;;;;959029;146;27302;-75
2023/08/05 12:33:30;;;;;;;0.72;0.72;;;31.60;38.60;;;;;;959347;146;27294;-76
2023/08/05 12:35:56;;;;;;;1.02;1.00;;;31.60;39.30;;;;;;957857;146;27390;-76
2023/08/05 12:38:23;;;;;;;2.95;2.65;;;31.50;38.60;;;;;;958281;146;27297;-76
2023/08/05 12:40:49;;;;;;;2.58;1.40;;;31.50;38.70;;;;;;956953;146;27461;-76
2023/08/05 12:43:16;;;;;;;1.95;1.10;;;31.50;38.70;;;;;;959262;146;27298;-75
2023/08/05 12:45:43;;;;;;;1.15;1.00;;;31.50;38.70;;;;;;956729;146;27328;-75